Richland, Missouri
Current Conditions -  °F | °C
As of 7:58 AM on Thursday 23 Oct 2014 (Local Time) from KTBN Reporting Station
Broken Clouds Broken Clouds  
Wind Chill: 42°   Ceiling: 18000
Heat Index: 44°   Visibility: 10mi
Dew Point: 43°   Wind: 5mph
Humidity: 95%   Direction: 170°S
Pressure: 30.18"   Gusts: NA
Location:  37.86°N, 92.4°W
Report Text: KTBN 231258Z AUTO 17004KT 10SM FEW041 BKN180 07/06 A3018 RMK AO2 SLP224 T00690062
Loading
Personal Weather Stations






























Interactive Weather Map
Tropical Storm Tracking
New forecast layout! Learn more

10-Day Weather Forecast

Advertisements
Track Severe Weather on mobile